sensor_id;sensor_type;location;lat;lon;timestamp;temperature;humidity
36458;DHT22;22480;50.546;12.292;2023-07-31T00:00:29;13.50;99.90
36458;DHT22;22480;50.546;12.292;2023-07-31T00:02:55;13.60;99.90
36458;DHT22;22480;50.546;12.292;2023-07-31T00:05:21;13.60;99.90
36458;DHT22;22480;50.546;12.292;2023-07-31T00:07:47;13.70;99.90
36458;DHT22;22480;50.546;12.292;2023-07-31T00:10:12;13.70;99.90
36458;DHT22;22480;50.546;12.292;2023-07-31T00:12:40;13.70;99.90
36458;DHT22;22480;50.546;12.292;2023-07-31T00:15:07;13.70;99.90
36458;DHT22;22480;50.546;12.292;2023-07-31T00:17:33;13.60;99.90
36458;DHT22;22480;50.546;12.292;2023-07-31T00:19:58;13.60;99.90
36458;DHT22;22480;50.546;12.292;2023-07-31T00:22:24;13.50;99.90
36458;DHT22;22480;50.546;12.292;2023-07-31T00:24:50;13.50;99.90
36458;DHT22;22480;50.546;12.292;2023-07-31T00:27:16;13.40;99.90
36458;DHT22;22480;50.546;12.292;2023-07-31T00:29:43;13.40;99.90
36458;DHT22;22480;50.546;12.292;2023-07-31T00:32:08;13.30;99.90
36458;DHT22;22480;50.546;12.292;2023-07-31T00:34:36;13.20;99.90
36458;DHT22;22480;50.546;12.292;2023-07-31T00:37:02;13.20;99.90
36458;DHT22;22480;50.546;12.292;2023-07-31T00:39:30;13.20;99.90
36458;DHT22;22480;50.546;12.292;2023-07-31T00:41:56;13.30;99.90
36458;DHT22;22480;50.546;12.292;2023-07-31T00:44:22;13.40;99.90
36458;DHT22;22480;50.546;12.292;2023-07-31T00:46:48;13.40;99.90
36458;DHT22;22480;50.546;12.292;2023-07-31T00:49:15;13.40;99.90
36458;DHT22;22480;50.546;12.292;2023-07-31T00:51:41;13.40;99.90
36458;DHT22;22480;50.546;12.292;2023-07-31T00:54:07;13.40;99.90
36458;DHT22;22480;50.546;12.292;2023-07-31T00:56:33;13.40;99.90
36458;DHT22;22480;50.546;12.292;2023-07-31T00:59:00;13.30;99.90
36458;DHT22;22480;50.546;12.292;2023-07-31T01:01:26;13.30;99.90
36458;DHT22;22480;50.546;12.292;2023-07-31T01:03:53;13.30;99.90
36458;DHT22;22480;50.546;12.292;2023-07-31T01:08:58;13.30;99.90
36458;DHT22;22480;50.546;12.292;2023-07-31T01:11:29;13.20;99.90
36458;DHT22;22480;50.546;12.292;2023-07-31T01:13:55;13.30;99.90
36458;DHT22;22480;50.546;12.292;2023-07-31T01:16:22;13.30;99.90
36458;DHT22;22480;50.546;12.292;2023-07-31T01:18:47;13.30;99.90
36458;DHT22;22480;50.546;12.292;2023-07-31T01:26:53;13.50;99.90
36458;DHT22;22480;50.546;12.292;2023-07-31T01:30:09;13.50;99.90
36458;DHT22;22480;50.546;12.292;2023-07-31T01:32:10;13.50;99.90
36458;DHT22;22480;50.546;12.292;2023-07-31T01:34:37;13.40;99.90
36458;DHT22;22480;50.546;12.292;2023-07-31T01:37:04;13.40;99.90
36458;DHT22;22480;50.546;12.292;2023-07-31T01:39:30;13.40;99.90
36458;DHT22;22480;50.546;12.292;2023-07-31T01:41:56;13.30;99.90
36458;DHT22;22480;50.546;12.292;2023-07-31T01:44:21;13.20;99.90
36458;DHT22;22480;50.546;12.292;2023-07-31T01:46:47;13.10;99.90
36458;DHT22;22480;50.546;12.292;2023-07-31T01:49:13;13.10;99.90
36458;DHT22;22480;50.546;12.292;2023-07-31T01:51:39;13.00;99.90
36458;DHT22;22480;50.546;12.292;2023-07-31T01:54:06;13.00;99.90
36458;DHT22;22480;50.546;12.292;2023-07-31T01:56:32;12.90;99.90
36458;DHT22;22480;50.546;12.292;2023-07-31T01:58:58;12.90;99.90
36458;DHT22;22480;50.546;12.292;2023-07-31T02:01:24;12.80;99.90
36458;DHT22;22480;50.546;12.292;2023-07-31T02:03:50;12.80;99.90
36458;DHT22;22480;50.546;12.292;2023-07-31T02:06:16;12.80;99.90
36458;DHT22;22480;50.546;12.292;2023-07-31T02:08:42;12.80;99.90
36458;DHT22;22480;50.546;12.292;2023-07-31T02:11:08;12.80;99.90
36458;DHT22;22480;50.546;12.292;2023-07-31T02:13:34;12.70;99.90
36458;DHT22;22480;50.546;12.292;2023-07-31T02:15:59;12.70;99.90
36458;DHT22;22480;50.546;12.292;2023-07-31T02:18:25;12.70;99.90
36458;DHT22;22480;50.546;12.292;2023-07-31T02:20:51;12.70;99.90
36458;DHT22;22480;50.546;12.292;2023-07-31T02:23:18;12.60;99.90
36458;DHT22;22480;50.546;12.292;2023-07-31T02:25:44;12.60;99.90
36458;DHT22;22480;50.546;12.292;2023-07-31T02:28:10;12.60;99.90
36458;DHT22;22480;50.546;12.292;2023-07-31T02:30:36;12.60;99.90
36458;DHT22;22480;50.546;12.292;2023-07-31T02:33:02;12.60;99.90
36458;DHT22;22480;50.546;12.292;2023-07-31T02:35:28;12.50;99.90
36458;DHT22;22480;50.546;12.292;2023-07-31T02:37:53;12.50;99.90
36458;DHT22;22480;50.546;12.292;2023-07-31T02:40:19;12.50;99.90
36458;DHT22;22480;50.546;12.292;2023-07-31T02:42:45;12.50;99.90
36458;DHT22;22480;50.546;12.292;2023-07-31T02:45:11;12.40;99.90
36458;DHT22;22480;50.546;12.292;2023-07-31T02:47:37;12.50;99.90
36458;DHT22;22480;50.546;12.292;2023-07-31T02:50:03;12.50;99.90
36458;DHT22;22480;50.546;12.292;2023-07-31T02:52:29;12.50;99.90
36458;DHT22;22480;50.546;12.292;2023-07-31T02:54:55;12.50;99.90
36458;DHT22;22480;50.546;12.292;2023-07-31T02:57:21;12.50;99.90
36458;DHT22;22480;50.546;12.292;2023-07-31T02:59:46;12.40;99.90
36458;DHT22;22480;50.546;12.292;2023-07-31T03:02:12;12.50;99.90
36458;DHT22;22480;50.546;12.292;2023-07-31T03:04:38;12.40;99.90
36458;DHT22;22480;50.546;12.292;2023-07-31T03:07:05;12.50;99.90
36458;DHT22;22480;50.546;12.292;2023-07-31T03:09:30;12.50;99.90
36458;DHT22;22480;50.546;12.292;2023-07-31T03:11:56;12.50;99.90
36458;DHT22;22480;50.546;12.292;2023-07-31T03:14:22;12.50;99.90
36458;DHT22;22480;50.546;12.292;2023-07-31T03:16:48;12.50;99.90
36458;DHT22;22480;50.546;12.292;2023-07-31T03:19:14;12.50;99.90
36458;DHT22;22480;50.546;12.292;2023-07-31T03:21:40;12.50;99.90
36458;DHT22;22480;50.546;12.292;2023-07-31T03:24:06;12.60;99.90
36458;DHT22;22480;50.546;12.292;2023-07-31T03:26:32;12.60;99.90
36458;DHT22;22480;50.546;12.292;2023-07-31T03:28:58;12.60;99.90
36458;DHT22;22480;50.546;12.292;2023-07-31T03:31:24;12.60;99.90
36458;DHT22;22480;50.546;12.292;2023-07-31T03:33:50;12.60;99.90
36458;DHT22;22480;50.546;12.292;2023-07-31T03:36:15;12.60;99.90
36458;DHT22;22480;50.546;12.292;2023-07-31T03:38:41;12.70;99.90
36458;DHT22;22480;50.546;12.292;2023-07-31T03:41:07;12.70;99.90
36458;DHT22;22480;50.546;12.292;2023-07-31T03:43:32;12.70;99.90
36458;DHT22;22480;50.546;12.292;2023-07-31T03:46:01;12.70;99.90
36458;DHT22;22480;50.546;12.292;2023-07-31T03:48:28;12.70;99.90
36458;DHT22;22480;50.546;12.292;2023-07-31T03:50:54;12.70;99.90
36458;DHT22;22480;50.546;12.292;2023-07-31T03:53:21;12.70;99.90
36458;DHT22;22480;50.546;12.292;2023-07-31T03:55:47;12.70;99.90
36458;DHT22;22480;50.546;12.292;2023-07-31T03:58:12;12.70;99.90
36458;DHT22;22480;50.546;12.292;2023-07-31T04:00:40;12.80;99.90
36458;DHT22;22480;50.546;12.292;2023-07-31T04:03:06;12.80;99.90
36458;DHT22;22480;50.546;12.292;2023-07-31T04:05:32;12.80;99.90
36458;DHT22;22480;50.546;12.292;2023-07-31T04:07:58;12.80;99.90
36458;DHT22;22480;50.546;12.292;2023-07-31T04:10:24;12.80;99.90
36458;DHT22;22480;50.546;12.292;2023-07-31T04:12:50;12.80;99.90
36458;DHT22;22480;50.546;12.292;2023-07-31T04:15:15;12.80;99.90
36458;DHT22;22480;50.546;12.292;2023-07-31T04:17:41;12.80;99.90
36458;DHT22;22480;50.546;12.292;2023-07-31T04:20:08;12.80;99.90
36458;DHT22;22480;50.546;12.292;2023-07-31T04:22:33;12.90;99.90
36458;DHT22;22480;50.546;12.292;2023-07-31T04:24:59;12.90;99.90
36458;DHT22;22480;50.546;12.292;2023-07-31T04:27:25;12.90;99.90
36458;DHT22;22480;50.546;12.292;2023-07-31T04:29:51;12.90;99.90
36458;DHT22;22480;50.546;12.292;2023-07-31T04:32:16;12.90;99.90
36458;DHT22;22480;50.546;12.292;2023-07-31T04:34:43;13.00;99.90
36458;DHT22;22480;50.546;12.292;2023-07-31T04:37:09;13.00;99.90
36458;DHT22;22480;50.546;12.292;2023-07-31T04:39:34;13.00;99.90
36458;DHT22;22480;50.546;12.292;2023-07-31T04:42:00;13.10;99.90
36458;DHT22;22480;50.546;12.292;2023-07-31T04:44:26;13.10;99.90
36458;DHT22;22480;50.546;12.292;2023-07-31T04:46:51;13.10;99.90
36458;DHT22;22480;50.546;12.292;2023-07-31T04:49:17;13.20;99.90
36458;DHT22;22480;50.546;12.292;2023-07-31T04:51:43;13.30;99.90
36458;DHT22;22480;50.546;12.292;2023-07-31T04:54:08;13.30;99.90
36458;DHT22;22480;50.546;12.292;2023-07-31T04:56:34;13.40;99.90
36458;DHT22;22480;50.546;12.292;2023-07-31T04:59:00;13.40;99.90
36458;DHT22;22480;50.546;12.292;2023-07-31T05:01:25;13.40;99.90
36458;DHT22;22480;50.546;12.292;2023-07-31T05:03:51;13.40;99.90
36458;DHT22;22480;50.546;12.292;2023-07-31T05:06:17;13.40;99.90
36458;DHT22;22480;50.546;12.292;2023-07-31T05:08:42;13.50;99.90
36458;DHT22;22480;50.546;12.292;2023-07-31T05:11:08;13.50;99.90
36458;DHT22;22480;50.546;12.292;2023-07-31T05:13:34;13.50;99.90
36458;DHT22;22480;50.546;12.292;2023-07-31T05:15:59;13.60;99.90
36458;DHT22;22480;50.546;12.292;2023-07-31T05:18:25;13.60;99.90
36458;DHT22;22480;50.546;12.292;2023-07-31T05:20:51;13.70;99.90
36458;DHT22;22480;50.546;12.292;2023-07-31T05:23:16;13.70;99.90
36458;DHT22;22480;50.546;12.292;2023-07-31T05:25:42;13.80;99.90
36458;DHT22;22480;50.546;12.292;2023-07-31T05:28:08;13.80;99.90
36458;DHT22;22480;50.546;12.292;2023-07-31T05:30:33;13.80;99.90
36458;DHT22;22480;50.546;12.292;2023-07-31T05:32:59;13.90;99.90
36458;DHT22;22480;50.546;12.292;2023-07-31T05:35:25;13.90;99.90
36458;DHT22;22480;50.546;12.292;2023-07-31T05:37:51;13.90;99.90
36458;DHT22;22480;50.546;12.292;2023-07-31T05:40:16;13.90;99.90
36458;DHT22;22480;50.546;12.292;2023-07-31T05:42:42;13.90;99.90
36458;DHT22;22480;50.546;12.292;2023-07-31T05:45:08;13.90;99.90
36458;DHT22;22480;50.546;12.292;2023-07-31T05:47:34;13.90;99.90
36458;DHT22;22480;50.546;12.292;2023-07-31T05:50:00;14.00;99.90
36458;DHT22;22480;50.546;12.292;2023-07-31T05:52:25;14.00;99.90
36458;DHT22;22480;50.546;12.292;2023-07-31T05:54:51;14.10;99.90
36458;DHT22;22480;50.546;12.292;2023-07-31T05:57:17;14.10;99.90
36458;DHT22;22480;50.546;12.292;2023-07-31T05:59:42;14.10;99.90
36458;DHT22;22480;50.546;12.292;2023-07-31T06:02:08;14.10;99.90
36458;DHT22;22480;50.546;12.292;2023-07-31T06:04:34;14.10;99.90
36458;DHT22;22480;50.546;12.292;2023-07-31T06:07:00;14.20;99.90
36458;DHT22;22480;50.546;12.292;2023-07-31T06:09:26;14.20;99.90
36458;DHT22;22480;50.546;12.292;2023-07-31T06:11:52;14.30;99.90
36458;DHT22;22480;50.546;12.292;2023-07-31T06:14:18;14.40;99.90
36458;DHT22;22480;50.546;12.292;2023-07-31T06:16:46;14.40;99.90
36458;DHT22;22480;50.546;12.292;2023-07-31T06:19:12;14.50;99.90
36458;DHT22;22480;50.546;12.292;2023-07-31T06:21:38;14.50;99.90
36458;DHT22;22480;50.546;12.292;2023-07-31T06:24:05;14.50;99.90
36458;DHT22;22480;50.546;12.292;2023-07-31T06:26:31;14.50;99.90
36458;DHT22;22480;50.546;12.292;2023-07-31T06:28:57;14.60;99.90
36458;DHT22;22480;50.546;12.292;2023-07-31T06:31:22;14.60;99.90
36458;DHT22;22480;50.546;12.292;2023-07-31T06:33:49;14.70;99.90
36458;DHT22;22480;50.546;12.292;2023-07-31T06:36:15;14.80;99.90
36458;DHT22;22480;50.546;12.292;2023-07-31T06:38:41;14.80;99.90
36458;DHT22;22480;50.546;12.292;2023-07-31T06:41:06;14.90;99.90
36458;DHT22;22480;50.546;12.292;2023-07-31T06:43:32;14.90;99.90
36458;DHT22;22480;50.546;12.292;2023-07-31T06:45:59;14.90;99.90
36458;DHT22;22480;50.546;12.292;2023-07-31T06:48:25;14.90;99.90
36458;DHT22;22480;50.546;12.292;2023-07-31T06:50:51;14.80;99.90
36458;DHT22;22480;50.546;12.292;2023-07-31T06:53:17;14.90;99.90
36458;DHT22;22480;50.546;12.292;2023-07-31T06:55:42;14.90;99.90
36458;DHT22;22480;50.546;12.292;2023-07-31T06:58:08;15.00;99.90
36458;DHT22;22480;50.546;12.292;2023-07-31T07:00:34;15.00;99.90
36458;DHT22;22480;50.546;12.292;2023-07-31T07:02:59;15.00;99.90
36458;DHT22;22480;50.546;12.292;2023-07-31T07:05:26;15.00;99.90
36458;DHT22;22480;50.546;12.292;2023-07-31T07:07:53;15.10;99.90
36458;DHT22;22480;50.546;12.292;2023-07-31T07:10:18;15.20;99.90
36458;DHT22;22480;50.546;12.292;2023-07-31T07:12:44;15.30;99.90
36458;DHT22;22480;50.546;12.292;2023-07-31T07:15:10;15.30;99.90
36458;DHT22;22480;50.546;12.292;2023-07-31T07:17:36;15.40;99.90
36458;DHT22;22480;50.546;12.292;2023-07-31T07:20:02;15.50;99.90
36458;DHT22;22480;50.546;12.292;2023-07-31T07:22:29;15.50;99.90
36458;DHT22;22480;50.546;12.292;2023-07-31T07:24:54;15.50;99.90
36458;DHT22;22480;50.546;12.292;2023-07-31T07:27:20;15.50;99.90
36458;DHT22;22480;50.546;12.292;2023-07-31T07:29:46;15.60;99.90
36458;DHT22;22480;50.546;12.292;2023-07-31T07:32:13;15.70;99.90
36458;DHT22;22480;50.546;12.292;2023-07-31T07:34:38;15.80;99.90
36458;DHT22;22480;50.546;12.292;2023-07-31T07:37:04;16.00;99.90
36458;DHT22;22480;50.546;12.292;2023-07-31T07:39:30;16.10;99.90
36458;DHT22;22480;50.546;12.292;2023-07-31T07:41:56;16.20;99.90
36458;DHT22;22480;50.546;12.292;2023-07-31T07:44:22;16.20;99.90
36458;DHT22;22480;50.546;12.292;2023-07-31T07:46:47;16.20;99.90
36458;DHT22;22480;50.546;12.292;2023-07-31T07:49:13;16.10;99.90
36458;DHT22;22480;50.546;12.292;2023-07-31T07:51:39;16.20;99.90
36458;DHT22;22480;50.546;12.292;2023-07-31T07:54:04;16.10;99.90
36458;DHT22;22480;50.546;12.292;2023-07-31T07:56:30;16.10;99.90
36458;DHT22;22480;50.546;12.292;2023-07-31T07:58:56;16.10;99.90
36458;DHT22;22480;50.546;12.292;2023-07-31T08:01:21;16.10;99.90
36458;DHT22;22480;50.546;12.292;2023-07-31T08:03:48;16.10;99.90
36458;DHT22;22480;50.546;12.292;2023-07-31T08:06:14;16.20;99.90
36458;DHT22;22480;50.546;12.292;2023-07-31T08:08:40;16.20;99.90
36458;DHT22;22480;50.546;12.292;2023-07-31T08:11:06;16.20;99.90
36458;DHT22;22480;50.546;12.292;2023-07-31T08:13:32;16.30;99.90
36458;DHT22;22480;50.546;12.292;2023-07-31T08:15:58;16.40;99.90
36458;DHT22;22480;50.546;12.292;2023-07-31T08:18:23;16.60;99.90
36458;DHT22;22480;50.546;12.292;2023-07-31T08:20:49;16.70;99.90
36458;DHT22;22480;50.546;12.292;2023-07-31T08:23:15;16.70;99.90
36458;DHT22;22480;50.546;12.292;2023-07-31T08:25:41;16.70;99.90
36458;DHT22;22480;50.546;12.292;2023-07-31T08:28:07;16.90;99.90
36458;DHT22;22480;50.546;12.292;2023-07-31T08:30:33;17.00;99.90
36458;DHT22;22480;50.546;12.292;2023-07-31T08:32:59;17.10;99.90
36458;DHT22;22480;50.546;12.292;2023-07-31T08:35:26;17.20;99.90
36458;DHT22;22480;50.546;12.292;2023-07-31T08:37:53;17.40;99.90
36458;DHT22;22480;50.546;12.292;2023-07-31T08:40:19;17.60;99.90
36458;DHT22;22480;50.546;12.292;2023-07-31T08:42:48;17.70;99.90
36458;DHT22;22480;50.546;12.292;2023-07-31T08:45:15;17.60;99.90
36458;DHT22;22480;50.546;12.292;2023-07-31T08:47:51;17.40;99.90
36458;DHT22;22480;50.546;12.292;2023-07-31T08:50:20;17.50;99.90
36458;DHT22;22480;50.546;12.292;2023-07-31T08:52:48;17.40;99.90
36458;DHT22;22480;50.546;12.292;2023-07-31T08:55:14;17.40;99.90
36458;DHT22;22480;50.546;12.292;2023-07-31T08:57:40;17.40;99.90
36458;DHT22;22480;50.546;12.292;2023-07-31T09:00:08;17.70;99.90
36458;DHT22;22480;50.546;12.292;2023-07-31T09:05:16;18.20;99.90
36458;DHT22;22480;50.546;12.292;2023-07-31T09:07:44;18.30;99.90
36458;DHT22;22480;50.546;12.292;2023-07-31T09:10:11;18.30;99.90
36458;DHT22;22480;50.546;12.292;2023-07-31T09:12:38;18.40;99.90
36458;DHT22;22480;50.546;12.292;2023-07-31T09:15:04;18.30;99.90
36458;DHT22;22480;50.546;12.292;2023-07-31T09:17:34;18.30;99.90
36458;DHT22;22480;50.546;12.292;2023-07-31T09:20:18;18.60;99.90
36458;DHT22;22480;50.546;12.292;2023-07-31T09:22:45;19.00;99.90
36458;DHT22;22480;50.546;12.292;2023-07-31T09:25:24;19.20;99.90
36458;DHT22;22480;50.546;12.292;2023-07-31T09:30:19;19.90;99.90
36458;DHT22;22480;50.546;12.292;2023-07-31T09:32:46;19.70;99.90
36458;DHT22;22480;50.546;12.292;2023-07-31T09:37:39;19.40;99.90
36458;DHT22;22480;50.546;12.292;2023-07-31T09:40:05;19.90;99.90
36458;DHT22;22480;50.546;12.292;2023-07-31T09:42:31;20.30;99.90
36458;DHT22;22480;50.546;12.292;2023-07-31T09:45:07;20.10;99.90
36458;DHT22;22480;50.546;12.292;2023-07-31T09:47:34;19.70;99.90
36458;DHT22;22480;50.546;12.292;2023-07-31T09:50:00;19.90;99.90
36458;DHT22;22480;50.546;12.292;2023-07-31T09:52:28;19.80;99.90
36458;DHT22;22480;50.546;12.292;2023-07-31T09:54:54;19.40;99.90
36458;DHT22;22480;50.546;12.292;2023-07-31T09:57:21;19.30;99.90
36458;DHT22;22480;50.546;12.292;2023-07-31T09:59:48;19.00;99.90
36458;DHT22;22480;50.546;12.292;2023-07-31T10:02:21;18.90;99.90
36458;DHT22;22480;50.546;12.292;2023-07-31T10:04:49;18.80;99.90
36458;DHT22;22480;50.546;12.292;2023-07-31T10:07:18;18.70;99.90
36458;DHT22;22480;50.546;12.292;2023-07-31T10:09:44;18.70;99.90
36458;DHT22;22480;50.546;12.292;2023-07-31T10:12:14;18.80;99.90
36458;DHT22;22480;50.546;12.292;2023-07-31T10:14:44;19.00;99.90
36458;DHT22;22480;50.546;12.292;2023-07-31T10:17:10;19.40;99.90
36458;DHT22;22480;50.546;12.292;2023-07-31T10:19:37;19.60;99.90
36458;DHT22;22480;50.546;12.292;2023-07-31T10:22:04;19.80;99.90
36458;DHT22;22480;50.546;12.292;2023-07-31T10:24:31;20.10;99.90
36458;DHT22;22480;50.546;12.292;2023-07-31T10:26:58;20.50;99.90
36458;DHT22;22480;50.546;12.292;2023-07-31T10:29:25;20.60;99.90
36458;DHT22;22480;50.546;12.292;2023-07-31T10:31:52;20.80;99.90
36458;DHT22;22480;50.546;12.292;2023-07-31T10:34:19;21.00;99.90
36458;DHT22;22480;50.546;12.292;2023-07-31T10:36:44;21.10;99.90
36458;DHT22;22480;50.546;12.292;2023-07-31T10:39:36;21.30;99.90
36458;DHT22;22480;50.546;12.292;2023-07-31T10:42:12;21.00;99.90
36458;DHT22;22480;50.546;12.292;2023-07-31T10:44:43;20.80;99.90
36458;DHT22;22480;50.546;12.292;2023-07-31T10:47:09;20.70;99.90
36458;DHT22;22480;50.546;12.292;2023-07-31T10:49:35;20.60;99.90
36458;DHT22;22480;50.546;12.292;2023-07-31T10:52:03;20.40;99.90
36458;DHT22;22480;50.546;12.292;2023-07-31T10:54:29;19.90;99.90
36458;DHT22;22480;50.546;12.292;2023-07-31T10:56:56;19.40;99.90
36458;DHT22;22480;50.546;12.292;2023-07-31T10:59:26;19.30;99.90
36458;DHT22;22480;50.546;12.292;2023-07-31T11:01:56;19.30;99.90
36458;DHT22;22480;50.546;12.292;2023-07-31T11:04:29;19.50;99.90
36458;DHT22;22480;50.546;12.292;2023-07-31T11:07:01;19.80;99.90
36458;DHT22;22480;50.546;12.292;2023-07-31T11:09:32;19.80;99.90
36458;DHT22;22480;50.546;12.292;2023-07-31T11:11:58;20.20;99.90
36458;DHT22;22480;50.546;12.292;2023-07-31T11:14:24;20.50;99.90
36458;DHT22;22480;50.546;12.292;2023-07-31T11:16:51;20.60;99.90
36458;DHT22;22480;50.546;12.292;2023-07-31T11:19:24;20.40;99.90
36458;DHT22;22480;50.546;12.292;2023-07-31T11:21:51;20.20;99.90
36458;DHT22;22480;50.546;12.292;2023-07-31T11:24:17;20.10;99.90
36458;DHT22;22480;50.546;12.292;2023-07-31T11:26:52;19.90;99.90
36458;DHT22;22480;50.546;12.292;2023-07-31T11:29:19;20.20;99.90
36458;DHT22;22480;50.546;12.292;2023-07-31T11:31:47;20.60;99.90
36458;DHT22;22480;50.546;12.292;2023-07-31T11:34:13;20.90;99.90
36458;DHT22;22480;50.546;12.292;2023-07-31T11:36:39;21.00;99.90
36458;DHT22;22480;50.546;12.292;2023-07-31T11:39:09;20.80;99.90
36458;DHT22;22480;50.546;12.292;2023-07-31T11:41:35;20.60;99.90
36458;DHT22;22480;50.546;12.292;2023-07-31T11:44:01;20.40;99.90
36458;DHT22;22480;50.546;12.292;2023-07-31T11:46:30;20.20;99.90
36458;DHT22;22480;50.546;12.292;2023-07-31T11:48:59;20.30;99.90
36458;DHT22;22480;50.546;12.292;2023-07-31T11:51:26;20.00;99.90
36458;DHT22;22480;50.546;12.292;2023-07-31T11:53:57;20.20;99.90
36458;DHT22;22480;50.546;12.292;2023-07-31T11:56:24;20.50;99.90
36458;DHT22;22480;50.546;12.292;2023-07-31T11:58:53;21.00;99.90
36458;DHT22;22480;50.546;12.292;2023-07-31T12:01:21;21.30;99.90
36458;DHT22;22480;50.546;12.292;2023-07-31T12:03:48;21.00;99.90
36458;DHT22;22480;50.546;12.292;2023-07-31T12:06:14;21.20;99.90
36458;DHT22;22480;50.546;12.292;2023-07-31T12:08:40;21.10;99.90
36458;DHT22;22480;50.546;12.292;2023-07-31T12:11:07;21.00;99.90
36458;DHT22;22480;50.546;12.292;2023-07-31T12:13:35;21.00;99.90
36458;DHT22;22480;50.546;12.292;2023-07-31T12:16:02;21.00;99.90
36458;DHT22;22480;50.546;12.292;2023-07-31T12:18:33;21.10;99.90
36458;DHT22;22480;50.546;12.292;2023-07-31T12:21:02;21.30;99.90
36458;DHT22;22480;50.546;12.292;2023-07-31T12:23:31;21.40;99.90
36458;DHT22;22480;50.546;12.292;2023-07-31T12:28:27;20.90;99.90
36458;DHT22;22480;50.546;12.292;2023-07-31T12:30:57;20.90;99.90
36458;DHT22;22480;50.546;12.292;2023-07-31T12:33:24;20.90;99.90
36458;DHT22;22480;50.546;12.292;2023-07-31T12:35:55;20.80;99.90
36458;DHT22;22480;50.546;12.292;2023-07-31T12:38:22;20.90;99.90
36458;DHT22;22480;50.546;12.292;2023-07-31T12:40:48;20.70;99.90
36458;DHT22;22480;50.546;12.292;2023-07-31T12:43:13;20.50;99.90
36458;DHT22;22480;50.546;12.292;2023-07-31T12:45:39;20.30;99.90
36458;DHT22;22480;50.546;12.292;2023-07-31T12:48:05;20.00;99.90
36458;DHT22;22480;50.546;12.292;2023-07-31T12:50:30;19.90;99.90
36458;DHT22;22480;50.546;12.292;2023-07-31T12:52:57;20.00;99.90
36458;DHT22;22480;50.546;12.292;2023-07-31T12:55:23;20.20;99.90
36458;DHT22;22480;50.546;12.292;2023-07-31T12:57:49;20.60;99.90
36458;DHT22;22480;50.546;12.292;2023-07-31T13:00:15;20.80;99.90
36458;DHT22;22480;50.546;12.292;2023-07-31T13:02:41;21.30;99.90
36458;DHT22;22480;50.546;12.292;2023-07-31T13:05:07;21.60;99.90
36458;DHT22;22480;50.546;12.292;2023-07-31T13:07:33;21.40;99.90
36458;DHT22;22480;50.546;12.292;2023-07-31T13:09:58;21.40;99.90
36458;DHT22;22480;50.546;12.292;2023-07-31T13:12:24;20.90;99.90
36458;DHT22;22480;50.546;12.292;2023-07-31T13:14:50;20.80;99.90
36458;DHT22;22480;50.546;12.292;2023-07-31T13:17:16;20.80;99.90
36458;DHT22;22480;50.546;12.292;2023-07-31T13:19:42;20.80;99.90
36458;DHT22;22480;50.546;12.292;2023-07-31T13:22:08;20.60;99.90
36458;DHT22;22480;50.546;12.292;2023-07-31T13:24:33;20.60;99.90
36458;DHT22;22480;50.546;12.292;2023-07-31T13:26:59;21.00;99.90
36458;DHT22;22480;50.546;12.292;2023-07-31T13:29:25;21.10;99.90
36458;DHT22;22480;50.546;12.292;2023-07-31T13:31:52;21.00;99.90
36458;DHT22;22480;50.546;12.292;2023-07-31T13:34:18;20.90;99.90
36458;DHT22;22480;50.546;12.292;2023-07-31T13:36:43;21.10;99.90
36458;DHT22;22480;50.546;12.292;2023-07-31T13:39:09;21.70;99.90
36458;DHT22;22480;50.546;12.292;2023-07-31T13:41:35;22.20;99.90
36458;DHT22;22480;50.546;12.292;2023-07-31T13:44:00;22.30;99.90
36458;DHT22;22480;50.546;12.292;2023-07-31T13:46:26;22.20;99.90
36458;DHT22;22480;50.546;12.292;2023-07-31T13:48:52;22.40;99.90
36458;DHT22;22480;50.546;12.292;2023-07-31T13:51:21;22.90;99.90
36458;DHT22;22480;50.546;12.292;2023-07-31T13:53:47;22.80;99.90
36458;DHT22;22480;50.546;12.292;2023-07-31T13:56:13;23.20;99.90
36458;DHT22;22480;50.546;12.292;2023-07-31T13:58:39;23.00;99.90
36458;DHT22;22480;50.546;12.292;2023-07-31T14:01:04;23.00;99.90
36458;DHT22;22480;50.546;12.292;2023-07-31T14:03:30;23.10;99.90
36458;DHT22;22480;50.546;12.292;2023-07-31T14:05:56;23.20;99.90
36458;DHT22;22480;50.546;12.292;2023-07-31T14:08:22;22.60;99.90
36458;DHT22;22480;50.546;12.292;2023-07-31T14:10:48;21.90;99.90
36458;DHT22;22480;50.546;12.292;2023-07-31T14:13:13;21.50;99.90
36458;DHT22;22480;50.546;12.292;2023-07-31T14:15:42;21.10;99.90
36458;DHT22;22480;50.546;12.292;2023-07-31T14:18:08;20.90;99.90
36458;DHT22;22480;50.546;12.292;2023-07-31T14:20:34;20.90;99.90
36458;DHT22;22480;50.546;12.292;2023-07-31T14:23:00;20.70;99.90
36458;DHT22;22480;50.546;12.292;2023-07-31T14:25:26;20.70;99.90
36458;DHT22;22480;50.546;12.292;2023-07-31T14:27:52;20.50;99.90
36458;DHT22;22480;50.546;12.292;2023-07-31T14:30:17;20.50;99.90
36458;DHT22;22480;50.546;12.292;2023-07-31T14:32:44;20.50;99.90
36458;DHT22;22480;50.546;12.292;2023-07-31T14:35:09;20.70;99.90
36458;DHT22;22480;50.546;12.292;2023-07-31T14:37:45;20.50;99.90
36458;DHT22;22480;50.546;12.292;2023-07-31T14:40:12;20.60;99.90
36458;DHT22;22480;50.546;12.292;2023-07-31T14:42:38;20.50;99.90
36458;DHT22;22480;50.546;12.292;2023-07-31T14:45:06;20.30;99.90
36458;DHT22;22480;50.546;12.292;2023-07-31T14:47:32;20.30;99.90
36458;DHT22;22480;50.546;12.292;2023-07-31T14:50:01;20.30;99.90
36458;DHT22;22480;50.546;12.292;2023-07-31T14:52:27;20.20;99.90
36458;DHT22;22480;50.546;12.292;2023-07-31T14:54:53;20.30;99.90
36458;DHT22;22480;50.546;12.292;2023-07-31T14:57:19;20.30;99.90
36458;DHT22;22480;50.546;12.292;2023-07-31T14:59:45;20.30;99.90
36458;DHT22;22480;50.546;12.292;2023-07-31T15:02:12;20.30;99.90
36458;DHT22;22480;50.546;12.292;2023-07-31T15:04:38;20.20;99.90
36458;DHT22;22480;50.546;12.292;2023-07-31T15:07:04;20.30;99.90
36458;DHT22;22480;50.546;12.292;2023-07-31T15:09:29;20.10;99.90
36458;DHT22;22480;50.546;12.292;2023-07-31T15:11:56;20.00;99.90
36458;DHT22;22480;50.546;12.292;2023-07-31T15:14:22;19.90;99.90
36458;DHT22;22480;50.546;12.292;2023-07-31T15:16:48;19.90;99.90
36458;DHT22;22480;50.546;12.292;2023-07-31T15:19:14;19.90;99.90
36458;DHT22;22480;50.546;12.292;2023-07-31T15:21:40;19.90;99.90
36458;DHT22;22480;50.546;12.292;2023-07-31T15:24:06;20.00;99.90
36458;DHT22;22480;50.546;12.292;2023-07-31T15:26:32;20.20;99.90
36458;DHT22;22480;50.546;12.292;2023-07-31T15:29:03;20.40;99.90